sensor_id;sensor_type;location;lat;lon;timestamp;P1;durP1;ratioP1;P2;durP2;ratioP2
76320;SDS011;65132;52.088;5.402;2024-03-25T00:00:22;6.45;;;0.90;;
76320;SDS011;65132;52.088;5.402;2024-03-25T00:02:47;8.38;;;0.80;;
76320;SDS011;65132;52.088;5.402;2024-03-25T00:05:13;6.60;;;0.90;;
76320;SDS011;65132;52.088;5.402;2024-03-25T00:07:38;7.63;;;0.80;;
76320;SDS011;65132;52.088;5.402;2024-03-25T00:10:05;8.38;;;0.77;;
76320;SDS011;65132;52.088;5.402;2024-03-25T00:12:31;10.75;;;1.15;;
76320;SDS011;65132;52.088;5.402;2024-03-25T00:14:56;5.68;;;0.63;;
76320;SDS011;65132;52.088;5.402;2024-03-25T00:17:22;7.65;;;0.52;;
76320;SDS011;65132;52.088;5.402;2024-03-25T00:19:47;8.57;;;1.17;;
76320;SDS011;65132;52.088;5.402;2024-03-25T00:22:12;10.13;;;0.90;;
76320;SDS011;65132;52.088;5.402;2024-03-25T00:24:38;5.00;;;0.98;;
76320;SDS011;65132;52.088;5.402;2024-03-25T00:27:04;4.72;;;0.30;;
76320;SDS011;65132;52.088;5.402;2024-03-25T00:29:29;4.45;;;0.70;;
76320;SDS011;65132;52.088;5.402;2024-03-25T00:31:55;7.13;;;0.85;;
76320;SDS011;65132;52.088;5.402;2024-03-25T00:34:20;12.30;;;0.70;;
76320;SDS011;65132;52.088;5.402;2024-03-25T00:36:46;6.13;;;0.60;;
76320;SDS011;65132;52.088;5.402;2024-03-25T00:39:11;3.60;;;0.52;;
76320;SDS011;65132;52.088;5.402;2024-03-25T00:41:36;4.03;;;0.80;;
76320;SDS011;65132;52.088;5.402;2024-03-25T00:44:02;9.55;;;0.85;;
76320;SDS011;65132;52.088;5.402;2024-03-25T00:46:27;2.28;;;0.32;;
76320;SDS011;65132;52.088;5.402;2024-03-25T00:48:54;3.22;;;0.45;;
76320;SDS011;65132;52.088;5.402;2024-03-25T00:51:22;8.10;;;0.77;;
76320;SDS011;65132;52.088;5.402;2024-03-25T00:53:48;5.80;;;0.93;;
76320;SDS011;65132;52.088;5.402;2024-03-25T00:56:13;14.50;;;1.35;;
76320;SDS011;65132;52.088;5.402;2024-03-25T00:58:39;11.90;;;1.38;;
76320;SDS011;65132;52.088;5.402;2024-03-25T01:01:04;4.28;;;0.70;;
76320;SDS011;65132;52.088;5.402;2024-03-25T01:03:30;5.75;;;1.02;;
76320;SDS011;65132;52.088;5.402;2024-03-25T01:05:55;10.25;;;0.75;;
76320;SDS011;65132;52.088;5.402;2024-03-25T01:08:21;5.93;;;0.57;;
76320;SDS011;65132;52.088;5.402;2024-03-25T01:10:54;9.93;;;1.05;;
76320;SDS011;65132;52.088;5.402;2024-03-25T01:13:19;9.63;;;0.75;;
76320;SDS011;65132;52.088;5.402;2024-03-25T01:15:45;7.03;;;0.98;;
76320;SDS011;65132;52.088;5.402;2024-03-25T01:18:10;5.63;;;0.73;;
76320;SDS011;65132;52.088;5.402;2024-03-25T01:20:38;10.43;;;1.05;;
76320;SDS011;65132;52.088;5.402;2024-03-25T01:23:04;8.57;;;0.93;;
76320;SDS011;65132;52.088;5.402;2024-03-25T01:25:29;7.60;;;1.30;;
76320;SDS011;65132;52.088;5.402;2024-03-25T01:27:57;6.38;;;0.73;;
76320;SDS011;65132;52.088;5.402;2024-03-25T01:30:23;9.48;;;1.00;;
76320;SDS011;65132;52.088;5.402;2024-03-25T01:32:48;10.90;;;1.27;;
76320;SDS011;65132;52.088;5.402;2024-03-25T01:35:14;13.23;;;1.23;;
76320;SDS011;65132;52.088;5.402;2024-03-25T01:37:40;9.80;;;1.50;;
76320;SDS011;65132;52.088;5.402;2024-03-25T01:40:05;13.05;;;1.17;;
76320;SDS011;65132;52.088;5.402;2024-03-25T01:42:32;9.77;;;1.08;;
76320;SDS011;65132;52.088;5.402;2024-03-25T01:44:57;11.32;;;0.98;;
76320;SDS011;65132;52.088;5.402;2024-03-25T01:47:23;7.32;;;1.52;;
76320;SDS011;65132;52.088;5.402;2024-03-25T01:49:49;14.10;;;1.58;;
76320;SDS011;65132;52.088;5.402;2024-03-25T01:52:15;9.93;;;1.42;;
76320;SDS011;65132;52.088;5.402;2024-03-25T01:54:41;7.20;;;1.58;;
76320;SDS011;65132;52.088;5.402;2024-03-25T01:57:06;6.70;;;0.77;;
76320;SDS011;65132;52.088;5.402;2024-03-25T01:59:32;11.77;;;1.52;;
76320;SDS011;65132;52.088;5.402;2024-03-25T02:01:58;13.00;;;1.38;;
76320;SDS011;65132;52.088;5.402;2024-03-25T02:04:24;5.50;;;1.20;;
76320;SDS011;65132;52.088;5.402;2024-03-25T02:06:50;12.63;;;1.33;;
76320;SDS011;65132;52.088;5.402;2024-03-25T02:09:16;10.82;;;1.75;;
76320;SDS011;65132;52.088;5.402;2024-03-25T02:11:42;5.43;;;1.23;;
76320;SDS011;65132;52.088;5.402;2024-03-25T02:14:08;12.27;;;1.13;;
76320;SDS011;65132;52.088;5.402;2024-03-25T02:16:34;3.03;;;0.73;;
76320;SDS011;65132;52.088;5.402;2024-03-25T02:19:00;7.97;;;0.88;;
76320;SDS011;65132;52.088;5.402;2024-03-25T02:21:25;6.97;;;0.88;;
76320;SDS011;65132;52.088;5.402;2024-03-25T02:23:51;12.70;;;1.42;;
76320;SDS011;65132;52.088;5.402;2024-03-25T02:26:18;5.88;;;1.10;;
76320;SDS011;65132;52.088;5.402;2024-03-25T02:28:46;6.22;;;0.80;;
76320;SDS011;65132;52.088;5.402;2024-03-25T02:31:14;4.32;;;0.77;;
76320;SDS011;65132;52.088;5.402;2024-03-25T02:33:39;8.35;;;0.98;;
76320;SDS011;65132;52.088;5.402;2024-03-25T02:36:05;6.53;;;1.05;;
76320;SDS011;65132;52.088;5.402;2024-03-25T02:38:31;4.60;;;0.80;;
76320;SDS011;65132;52.088;5.402;2024-03-25T02:40:56;6.90;;;1.48;;
76320;SDS011;65132;52.088;5.402;2024-03-25T02:43:25;12.52;;;1.80;;
76320;SDS011;65132;52.088;5.402;2024-03-25T02:45:50;10.77;;;1.15;;
76320;SDS011;65132;52.088;5.402;2024-03-25T02:48:19;12.02;;;1.77;;
76320;SDS011;65132;52.088;5.402;2024-03-25T02:50:44;7.93;;;1.10;;
76320;SDS011;65132;52.088;5.402;2024-03-25T02:53:10;7.97;;;1.17;;
76320;SDS011;65132;52.088;5.402;2024-03-25T02:55:35;5.97;;;1.13;;
76320;SDS011;65132;52.088;5.402;2024-03-25T02:58:01;11.30;;;1.15;;
76320;SDS011;65132;52.088;5.402;2024-03-25T03:00:26;8.05;;;1.35;;
76320;SDS011;65132;52.088;5.402;2024-03-25T03:02:52;8.98;;;1.20;;
76320;SDS011;65132;52.088;5.402;2024-03-25T03:05:18;2.90;;;0.68;;
76320;SDS011;65132;52.088;5.402;2024-03-25T03:07:45;6.50;;;1.10;;
76320;SDS011;65132;52.088;5.402;2024-03-25T03:10:11;7.03;;;1.20;;
76320;SDS011;65132;52.088;5.402;2024-03-25T03:12:36;7.35;;;1.00;;
76320;SDS011;65132;52.088;5.402;2024-03-25T03:15:02;9.80;;;1.15;;
76320;SDS011;65132;52.088;5.402;2024-03-25T03:17:27;12.00;;;1.15;;
76320;SDS011;65132;52.088;5.402;2024-03-25T03:19:53;5.25;;;1.00;;
76320;SDS011;65132;52.088;5.402;2024-03-25T03:22:18;11.55;;;1.50;;
76320;SDS011;65132;52.088;5.402;2024-03-25T03:24:44;4.43;;;0.70;;
76320;SDS011;65132;52.088;5.402;2024-03-25T03:27:09;11.30;;;1.00;;
76320;SDS011;65132;52.088;5.402;2024-03-25T03:29:35;6.60;;;0.63;;
76320;SDS011;65132;52.088;5.402;2024-03-25T03:32:01;7.72;;;1.25;;
76320;SDS011;65132;52.088;5.402;2024-03-25T03:34:26;5.85;;;1.20;;
76320;SDS011;65132;52.088;5.402;2024-03-25T03:36:52;7.68;;;0.95;;
76320;SDS011;65132;52.088;5.402;2024-03-25T03:39:17;3.03;;;0.98;;
76320;SDS011;65132;52.088;5.402;2024-03-25T03:41:45;4.78;;;1.20;;
76320;SDS011;65132;52.088;5.402;2024-03-25T03:44:10;4.50;;;1.08;;
76320;SDS011;65132;52.088;5.402;2024-03-25T03:46:36;7.85;;;1.05;;
76320;SDS011;65132;52.088;5.402;2024-03-25T03:49:01;7.60;;;1.15;;
76320;SDS011;65132;52.088;5.402;2024-03-25T03:51:27;3.65;;;0.73;;
76320;SDS011;65132;52.088;5.402;2024-03-25T03:53:52;5.80;;;1.02;;
76320;SDS011;65132;52.088;5.402;2024-03-25T03:56:18;5.65;;;0.90;;
76320;SDS011;65132;52.088;5.402;2024-03-25T03:58:43;5.72;;;0.77;;
76320;SDS011;65132;52.088;5.402;2024-03-25T04:01:15;10.02;;;1.58;;
76320;SDS011;65132;52.088;5.402;2024-03-25T04:03:44;3.17;;;0.60;;
76320;SDS011;65132;52.088;5.402;2024-03-25T04:06:13;6.22;;;0.75;;
76320;SDS011;65132;52.088;5.402;2024-03-25T04:08:42;3.40;;;0.80;;
76320;SDS011;65132;52.088;5.402;2024-03-25T04:11:07;5.90;;;1.20;;
76320;SDS011;65132;52.088;5.402;2024-03-25T04:13:33;8.38;;;1.35;;
76320;SDS011;65132;52.088;5.402;2024-03-25T04:16:02;8.02;;;1.15;;
76320;SDS011;65132;52.088;5.402;2024-03-25T04:18:29;5.40;;;0.85;;
76320;SDS011;65132;52.088;5.402;2024-03-25T04:20:55;10.75;;;1.17;;
76320;SDS011;65132;52.088;5.402;2024-03-25T04:23:21;5.63;;;0.73;;
76320;SDS011;65132;52.088;5.402;2024-03-25T04:25:47;5.53;;;1.30;;
76320;SDS011;65132;52.088;5.402;2024-03-25T04:28:14;6.25;;;0.90;;
76320;SDS011;65132;52.088;5.402;2024-03-25T04:30:40;3.50;;;0.85;;
76320;SDS011;65132;52.088;5.402;2024-03-25T04:33:05;5.00;;;1.17;;
76320;SDS011;65132;52.088;5.402;2024-03-25T04:35:32;3.88;;;0.63;;
76320;SDS011;65132;52.088;5.402;2024-03-25T04:37:57;7.82;;;1.00;;
76320;SDS011;65132;52.088;5.402;2024-03-25T04:40:23;4.22;;;1.15;;
76320;SDS011;65132;52.088;5.402;2024-03-25T04:42:49;4.68;;;1.10;;
76320;SDS011;65132;52.088;5.402;2024-03-25T04:45:14;6.97;;;1.17;;
76320;SDS011;65132;52.088;5.402;2024-03-25T04:47:40;2.75;;;0.68;;
76320;SDS011;65132;52.088;5.402;2024-03-25T04:50:05;5.32;;;1.00;;
76320;SDS011;65132;52.088;5.402;2024-03-25T04:52:32;4.90;;;0.85;;
76320;SDS011;65132;52.088;5.402;2024-03-25T04:54:57;7.40;;;1.23;;
76320;SDS011;65132;52.088;5.402;2024-03-25T04:57:23;3.15;;;0.85;;
76320;SDS011;65132;52.088;5.402;2024-03-25T04:59:49;6.05;;;1.20;;
76320;SDS011;65132;52.088;5.402;2024-03-25T05:02:15;3.58;;;0.93;;
76320;SDS011;65132;52.088;5.402;2024-03-25T05:04:40;5.00;;;1.02;;
76320;SDS011;65132;52.088;5.402;2024-03-25T05:07:06;6.18;;;1.10;;
76320;SDS011;65132;52.088;5.402;2024-03-25T05:09:31;4.32;;;0.77;;
76320;SDS011;65132;52.088;5.402;2024-03-25T05:11:56;6.63;;;1.10;;
76320;SDS011;65132;52.088;5.402;2024-03-25T05:14:22;5.43;;;0.77;;
76320;SDS011;65132;52.088;5.402;2024-03-25T05:16:48;5.15;;;0.73;;
76320;SDS011;65132;52.088;5.402;2024-03-25T05:19:13;3.50;;;0.73;;
76320;SDS011;65132;52.088;5.402;2024-03-25T05:21:38;7.80;;;1.33;;
76320;SDS011;65132;52.088;5.402;2024-03-25T05:24:04;6.05;;;1.00;;
76320;SDS011;65132;52.088;5.402;2024-03-25T05:26:30;5.80;;;1.23;;
76320;SDS011;65132;52.088;5.402;2024-03-25T05:28:55;6.03;;;1.20;;
76320;SDS011;65132;52.088;5.402;2024-03-25T05:31:22;6.55;;;1.35;;
76320;SDS011;65132;52.088;5.402;2024-03-25T05:33:48;10.30;;;1.30;;
76320;SDS011;65132;52.088;5.402;2024-03-25T05:36:16;8.77;;;1.83;;
76320;SDS011;65132;52.088;5.402;2024-03-25T05:38:44;7.13;;;1.42;;
76320;SDS011;65132;52.088;5.402;2024-03-25T05:41:10;5.32;;;1.13;;
76320;SDS011;65132;52.088;5.402;2024-03-25T05:43:36;10.32;;;1.88;;
76320;SDS011;65132;52.088;5.402;2024-03-25T05:46:05;8.27;;;1.50;;
76320;SDS011;65132;52.088;5.402;2024-03-25T05:48:30;7.07;;;1.33;;
76320;SDS011;65132;52.088;5.402;2024-03-25T05:51:03;5.53;;;1.67;;
76320;SDS011;65132;52.088;5.402;2024-03-25T05:53:29;4.57;;;1.35;;
76320;SDS011;65132;52.088;5.402;2024-03-25T05:55:55;4.25;;;1.38;;
76320;SDS011;65132;52.088;5.402;2024-03-25T05:58:21;6.97;;;1.90;;
76320;SDS011;65132;52.088;5.402;2024-03-25T06:00:50;4.78;;;1.50;;
76320;SDS011;65132;52.088;5.402;2024-03-25T06:03:16;5.80;;;1.33;;
76320;SDS011;65132;52.088;5.402;2024-03-25T06:05:42;6.93;;;1.73;;
76320;SDS011;65132;52.088;5.402;2024-03-25T06:08:07;5.03;;;1.67;;
76320;SDS011;65132;52.088;5.402;2024-03-25T06:10:36;6.32;;;1.55;;
76320;SDS011;65132;52.088;5.402;2024-03-25T06:13:02;7.25;;;1.80;;
76320;SDS011;65132;52.088;5.402;2024-03-25T06:15:28;6.70;;;1.80;;
76320;SDS011;65132;52.088;5.402;2024-03-25T06:17:54;12.80;;;2.17;;
76320;SDS011;65132;52.088;5.402;2024-03-25T06:20:19;9.75;;;1.75;;
76320;SDS011;65132;52.088;5.402;2024-03-25T06:22:45;3.90;;;1.40;;
76320;SDS011;65132;52.088;5.402;2024-03-25T06:25:11;10.70;;;2.00;;
76320;SDS011;65132;52.088;5.402;2024-03-25T06:27:36;6.65;;;1.35;;
76320;SDS011;65132;52.088;5.402;2024-03-25T06:30:03;9.40;;;1.98;;
76320;SDS011;65132;52.088;5.402;2024-03-25T06:32:28;8.05;;;2.13;;
76320;SDS011;65132;52.088;5.402;2024-03-25T06:34:57;5.28;;;1.83;;
76320;SDS011;65132;52.088;5.402;2024-03-25T06:37:22;7.60;;;2.25;;
76320;SDS011;65132;52.088;5.402;2024-03-25T06:39:48;7.70;;;2.00;;
76320;SDS011;65132;52.088;5.402;2024-03-25T06:42:13;13.80;;;2.40;;
76320;SDS011;65132;52.088;5.402;2024-03-25T06:44:38;7.45;;;1.83;;
76320;SDS011;65132;52.088;5.402;2024-03-25T06:47:04;9.98;;;2.38;;
76320;SDS011;65132;52.088;5.402;2024-03-25T06:49:29;7.57;;;2.03;;
76320;SDS011;65132;52.088;5.402;2024-03-25T06:51:55;6.43;;;2.00;;
76320;SDS011;65132;52.088;5.402;2024-03-25T06:54:20;6.82;;;1.98;;
76320;SDS011;65132;52.088;5.402;2024-03-25T06:56:46;10.80;;;2.30;;
76320;SDS011;65132;52.088;5.402;2024-03-25T06:59:14;9.07;;;2.00;;
76320;SDS011;65132;52.088;5.402;2024-03-25T07:01:39;14.35;;;2.20;;
76320;SDS011;65132;52.088;5.402;2024-03-25T07:04:05;10.30;;;2.38;;
76320;SDS011;65132;52.088;5.402;2024-03-25T07:06:30;7.85;;;1.65;;
76320;SDS011;65132;52.088;5.402;2024-03-25T07:08:55;15.95;;;2.58;;
76320;SDS011;65132;52.088;5.402;2024-03-25T07:11:21;8.57;;;2.00;;
76320;SDS011;65132;52.088;5.402;2024-03-25T07:13:48;10.07;;;2.00;;
76320;SDS011;65132;52.088;5.402;2024-03-25T07:16:16;12.80;;;2.30;;
76320;SDS011;65132;52.088;5.402;2024-03-25T07:18:44;12.00;;;2.50;;
76320;SDS011;65132;52.088;5.402;2024-03-25T07:21:09;10.25;;;2.17;;
76320;SDS011;65132;52.088;5.402;2024-03-25T07:23:35;9.70;;;2.50;;
76320;SDS011;65132;52.088;5.402;2024-03-25T07:26:02;8.18;;;2.00;;
76320;SDS011;65132;52.088;5.402;2024-03-25T07:28:28;8.52;;;1.92;;
76320;SDS011;65132;52.088;5.402;2024-03-25T07:30:54;6.78;;;1.90;;
76320;SDS011;65132;52.088;5.402;2024-03-25T07:33:20;15.45;;;2.65;;
76320;SDS011;65132;52.088;5.402;2024-03-25T07:35:46;6.93;;;1.77;;
76320;SDS011;65132;52.088;5.402;2024-03-25T07:38:11;10.32;;;2.00;;
76320;SDS011;65132;52.088;5.402;2024-03-25T07:40:37;9.50;;;1.98;;
76320;SDS011;65132;52.088;5.402;2024-03-25T07:43:02;9.05;;;2.40;;
76320;SDS011;65132;52.088;5.402;2024-03-25T07:45:28;11.38;;;2.03;;
76320;SDS011;65132;52.088;5.402;2024-03-25T07:47:53;10.50;;;2.08;;
76320;SDS011;65132;52.088;5.402;2024-03-25T07:50:19;9.32;;;1.60;;
76320;SDS011;65132;52.088;5.402;2024-03-25T07:52:46;12.68;;;1.77;;
76320;SDS011;65132;52.088;5.402;2024-03-25T07:55:12;13.23;;;1.67;;
76320;SDS011;65132;52.088;5.402;2024-03-25T07:57:38;8.75;;;1.70;;
76320;SDS011;65132;52.088;5.402;2024-03-25T08:00:04;7.28;;;1.13;;
76320;SDS011;65132;52.088;5.402;2024-03-25T08:02:30;11.75;;;1.90;;
76320;SDS011;65132;52.088;5.402;2024-03-25T08:04:55;14.60;;;4.03;;
76320;SDS011;65132;52.088;5.402;2024-03-25T08:07:21;14.40;;;5.82;;
76320;SDS011;65132;52.088;5.402;2024-03-25T08:09:47;10.63;;;2.90;;
76320;SDS011;65132;52.088;5.402;2024-03-25T08:12:12;12.82;;;2.33;;
76320;SDS011;65132;52.088;5.402;2024-03-25T08:14:38;27.33;;;8.30;;
76320;SDS011;65132;52.088;5.402;2024-03-25T08:17:04;45.15;;;15.82;;
76320;SDS011;65132;52.088;5.402;2024-03-25T08:19:30;17.33;;;5.45;;
76320;SDS011;65132;52.088;5.402;2024-03-25T08:21:55;11.57;;;2.10;;
76320;SDS011;65132;52.088;5.402;2024-03-25T08:24:21;11.07;;;2.25;;
76320;SDS011;65132;52.088;5.402;2024-03-25T08:26:47;5.32;;;1.17;;
76320;SDS011;65132;52.088;5.402;2024-03-25T08:29:12;10.57;;;2.25;;
76320;SDS011;65132;52.088;5.402;2024-03-25T08:31:38;9.93;;;1.85;;
76320;SDS011;65132;52.088;5.402;2024-03-25T08:34:03;8.93;;;1.63;;
76320;SDS011;65132;52.088;5.402;2024-03-25T08:36:29;9.60;;;1.50;;
76320;SDS011;65132;52.088;5.402;2024-03-25T08:38:57;8.80;;;1.50;;
76320;SDS011;65132;52.088;5.402;2024-03-25T08:41:23;11.80;;;1.52;;
76320;SDS011;65132;52.088;5.402;2024-03-25T08:43:48;11.73;;;1.95;;
76320;SDS011;65132;52.088;5.402;2024-03-25T08:46:15;6.22;;;1.00;;
76320;SDS011;65132;52.088;5.402;2024-03-25T08:48:41;5.80;;;1.23;;
76320;SDS011;65132;52.088;5.402;2024-03-25T08:51:07;5.00;;;1.13;;
76320;SDS011;65132;52.088;5.402;2024-03-25T08:53:32;8.63;;;1.90;;
76320;SDS011;65132;52.088;5.402;2024-03-25T08:55:58;17.15;;;4.78;;
76320;SDS011;65132;52.088;5.402;2024-03-25T08:58:23;9.80;;;4.20;;
76320;SDS011;65132;52.088;5.402;2024-03-25T09:00:49;8.27;;;1.75;;
76320;SDS011;65132;52.088;5.402;2024-03-25T09:03:16;19.83;;;6.57;;
76320;SDS011;65132;52.088;5.402;2024-03-25T09:05:42;10.40;;;2.53;;
76320;SDS011;65132;52.088;5.402;2024-03-25T09:08:08;8.60;;;2.20;;
76320;SDS011;65132;52.088;5.402;2024-03-25T09:10:33;6.35;;;1.58;;
76320;SDS011;65132;52.088;5.402;2024-03-25T09:12:59;8.98;;;1.50;;
76320;SDS011;65132;52.088;5.402;2024-03-25T09:15:24;12.77;;;2.47;;
76320;SDS011;65132;52.088;5.402;2024-03-25T09:17:51;9.75;;;1.95;;
76320;SDS011;65132;52.088;5.402;2024-03-25T09:20:16;9.18;;;1.85;;
76320;SDS011;65132;52.088;5.402;2024-03-25T09:22:42;13.38;;;3.08;;
76320;SDS011;65132;52.088;5.402;2024-03-25T09:25:11;8.77;;;2.03;;
76320;SDS011;65132;52.088;5.402;2024-03-25T09:27:36;10.70;;;2.10;;
76320;SDS011;65132;52.088;5.402;2024-03-25T09:30:02;10.45;;;1.52;;
76320;SDS011;65132;52.088;5.402;2024-03-25T09:32:28;7.28;;;1.40;;
76320;SDS011;65132;52.088;5.402;2024-03-25T09:34:54;10.98;;;3.97;;
76320;SDS011;65132;52.088;5.402;2024-03-25T09:37:19;13.02;;;4.32;;
76320;SDS011;65132;52.088;5.402;2024-03-25T09:39:45;18.88;;;2.03;;
76320;SDS011;65132;52.088;5.402;2024-03-25T09:42:11;8.80;;;1.80;;
76320;SDS011;65132;52.088;5.402;2024-03-25T09:44:40;8.73;;;2.38;;
76320;SDS011;65132;52.088;5.402;2024-03-25T09:47:06;10.52;;;1.98;;
76320;SDS011;65132;52.088;5.402;2024-03-25T09:49:32;7.53;;;2.10;;
76320;SDS011;65132;52.088;5.402;2024-03-25T09:52:00;8.10;;;1.80;;
76320;SDS011;65132;52.088;5.402;2024-03-25T09:54:25;10.75;;;1.83;;
76320;SDS011;65132;52.088;5.402;2024-03-25T09:56:51;6.55;;;1.40;;
76320;SDS011;65132;52.088;5.402;2024-03-25T09:59:17;7.80;;;1.90;;
76320;SDS011;65132;52.088;5.402;2024-03-25T10:01:43;6.50;;;1.77;;
76320;SDS011;65132;52.088;5.402;2024-03-25T10:04:09;8.73;;;2.50;;
76320;SDS011;65132;52.088;5.402;2024-03-25T10:06:36;12.20;;;3.35;;
76320;SDS011;65132;52.088;5.402;2024-03-25T10:09:05;7.75;;;2.95;;
76320;SDS011;65132;52.088;5.402;2024-03-25T10:11:31;8.85;;;2.40;;
76320;SDS011;65132;52.088;5.402;2024-03-25T10:13:56;10.85;;;2.67;;
76320;SDS011;65132;52.088;5.402;2024-03-25T10:16:22;7.60;;;2.10;;
76320;SDS011;65132;52.088;5.402;2024-03-25T10:18:47;9.38;;;2.05;;
76320;SDS011;65132;52.088;5.402;2024-03-25T10:21:13;11.25;;;2.58;;
76320;SDS011;65132;52.088;5.402;2024-03-25T10:23:39;8.80;;;2.17;;
76320;SDS011;65132;52.088;5.402;2024-03-25T10:26:09;7.47;;;2.20;;
76320;SDS011;65132;52.088;5.402;2024-03-25T10:28:57;8.30;;;2.40;;
76320;SDS011;65132;52.088;5.402;2024-03-25T10:33:52;7.18;;;2.40;;
76320;SDS011;65132;52.088;5.402;2024-03-25T10:36:19;8.07;;;2.28;;
76320;SDS011;65132;52.088;5.402;2024-03-25T10:38:49;10.43;;;3.25;;
76320;SDS011;65132;52.088;5.402;2024-03-25T10:41:19;8.70;;;2.35;;
76320;SDS011;65132;52.088;5.402;2024-03-25T10:43:46;10.80;;;1.85;;
76320;SDS011;65132;52.088;5.402;2024-03-25T10:46:13;6.38;;;2.22;;
76320;SDS011;65132;52.088;5.402;2024-03-25T10:48:44;5.32;;;1.92;;
76320;SDS011;65132;52.088;5.402;2024-03-25T10:51:17;7.70;;;2.22;;
76320;SDS011;65132;52.088;5.402;2024-03-25T10:53:46;9.63;;;2.42;;
76320;SDS011;65132;52.088;5.402;2024-03-25T10:56:14;5.63;;;2.03;;
76320;SDS011;65132;52.088;5.402;2024-03-25T10:58:40;10.25;;;2.63;;
76320;SDS011;65132;52.088;5.402;2024-03-25T11:01:08;9.30;;;2.50;;
76320;SDS011;65132;52.088;5.402;2024-03-25T11:03:34;7.80;;;3.25;;
76320;SDS011;65132;52.088;5.402;2024-03-25T11:06:00;7.35;;;2.38;;
76320;SDS011;65132;52.088;5.402;2024-03-25T11:08:30;7.88;;;2.60;;
76320;SDS011;65132;52.088;5.402;2024-03-25T11:10:56;11.23;;;3.28;;
76320;SDS011;65132;52.088;5.402;2024-03-25T11:13:22;6.25;;;2.65;;
76320;SDS011;65132;52.088;5.402;2024-03-25T11:15:48;11.55;;;3.15;;
76320;SDS011;65132;52.088;5.402;2024-03-25T11:18:14;7.65;;;2.60;;
76320;SDS011;65132;52.088;5.402;2024-03-25T11:20:41;6.35;;;2.72;;
76320;SDS011;65132;52.088;5.402;2024-03-25T11:23:12;9.85;;;2.55;;
76320;SDS011;65132;52.088;5.402;2024-03-25T11:25:38;7.80;;;2.72;;
76320;SDS011;65132;52.088;5.402;2024-03-25T11:28:06;8.40;;;3.17;;
76320;SDS011;65132;52.088;5.402;2024-03-25T11:30:32;7.43;;;2.55;;
76320;SDS011;65132;52.088;5.402;2024-03-25T11:33:00;7.43;;;2.80;;
76320;SDS011;65132;52.088;5.402;2024-03-25T11:35:26;10.48;;;3.10;;
76320;SDS011;65132;52.088;5.402;2024-03-25T11:37:52;8.27;;;3.00;;
76320;SDS011;65132;52.088;5.402;2024-03-25T11:40:18;5.50;;;2.67;;
76320;SDS011;65132;52.088;5.402;2024-03-25T11:42:44;9.55;;;2.90;;
76320;SDS011;65132;52.088;5.402;2024-03-25T11:45:14;8.07;;;3.22;;
76320;SDS011;65132;52.088;5.402;2024-03-25T11:47:47;6.03;;;2.80;;
76320;SDS011;65132;52.088;5.402;2024-03-25T11:50:14;7.72;;;3.08;;
76320;SDS011;65132;52.088;5.402;2024-03-25T11:55:10;7.50;;;3.85;;
76320;SDS011;65132;52.088;5.402;2024-03-25T11:57:36;8.93;;;4.28;;
76320;SDS011;65132;52.088;5.402;2024-03-25T12:00:02;9.38;;;3.13;;
76320;SDS011;65132;52.088;5.402;2024-03-25T12:02:28;9.63;;;3.50;;
76320;SDS011;65132;52.088;5.402;2024-03-25T12:04:54;8.52;;;2.60;;
76320;SDS011;65132;52.088;5.402;2024-03-25T12:07:19;6.00;;;2.60;;
76320;SDS011;65132;52.088;5.402;2024-03-25T12:09:45;6.20;;;3.25;;
76320;SDS011;65132;52.088;5.402;2024-03-25T12:12:10;8.68;;;2.72;;
76320;SDS011;65132;52.088;5.402;2024-03-25T12:14:36;7.32;;;2.63;;
76320;SDS011;65132;52.088;5.402;2024-03-25T12:17:02;7.00;;;2.65;;
76320;SDS011;65132;52.088;5.402;2024-03-25T12:19:27;5.63;;;2.00;;
76320;SDS011;65132;52.088;5.402;2024-03-25T12:21:59;6.60;;;1.90;;
76320;SDS011;65132;52.088;5.402;2024-03-25T12:24:26;7.10;;;2.30;;
76320;SDS011;65132;52.088;5.402;2024-03-25T12:26:54;6.93;;;2.50;;
76320;SDS011;65132;52.088;5.402;2024-03-25T12:29:20;6.57;;;2.03;;
76320;SDS011;65132;52.088;5.402;2024-03-25T12:31:55;5.18;;;1.90;;
76320;SDS011;65132;52.088;5.402;2024-03-25T12:34:21;5.25;;;2.22;;
76320;SDS011;65132;52.088;5.402;2024-03-25T12:36:51;4.90;;;1.60;;
76320;SDS011;65132;52.088;5.402;2024-03-25T12:39:16;5.88;;;2.10;;
76320;SDS011;65132;52.088;5.402;2024-03-25T12:41:45;4.45;;;1.75;;
76320;SDS011;65132;52.088;5.402;2024-03-25T12:44:14;5.70;;;1.98;;
76320;SDS011;65132;52.088;5.402;2024-03-25T12:46:42;6.70;;;1.83;;
76320;SDS011;65132;52.088;5.402;2024-03-25T12:49:08;4.60;;;1.17;;
76320;SDS011;65132;52.088;5.402;2024-03-25T12:51:33;4.03;;;1.30;;
76320;SDS011;65132;52.088;5.402;2024-03-25T12:53:59;6.80;;;1.60;;
76320;SDS011;65132;52.088;5.402;2024-03-25T12:56:24;5.07;;;1.60;;
76320;SDS011;65132;52.088;5.402;2024-03-25T12:58:50;5.97;;;1.45;;
76320;SDS011;65132;52.088;5.402;2024-03-25T13:01:18;5.32;;;1.55;;
76320;SDS011;65132;52.088;5.402;2024-03-25T13:03:44;6.10;;;1.40;;
76320;SDS011;65132;52.088;5.402;2024-03-25T13:06:10;4.40;;;1.20;;
76320;SDS011;65132;52.088;5.402;2024-03-25T13:08:35;4.95;;;1.20;;
76320;SDS011;65132;52.088;5.402;2024-03-25T13:11:01;5.18;;;1.70;;
76320;SDS011;65132;52.088;5.402;2024-03-25T13:13:26;7.28;;;1.60;;
76320;SDS011;65132;52.088;5.402;2024-03-25T13:15:52;4.55;;;1.30;;
76320;SDS011;65132;52.088;5.402;2024-03-25T13:18:18;3.53;;;1.20;;
76320;SDS011;65132;52.088;5.402;2024-03-25T13:20:43;6.20;;;1.63;;
76320;SDS011;65132;52.088;5.402;2024-03-25T13:23:10;3.47;;;1.25;;
76320;SDS011;65132;52.088;5.402;2024-03-25T13:25:38;4.68;;;1.30;;
76320;SDS011;65132;52.088;5.402;2024-03-25T13:28:06;5.07;;;1.38;;
76320;SDS011;65132;52.088;5.402;2024-03-25T13:30:32;4.30;;;1.30;;
76320;SDS011;65132;52.088;5.402;2024-03-25T13:32:57;5.05;;;1.38;;
76320;SDS011;65132;52.088;5.402;2024-03-25T13:35:23;3.70;;;1.42;;
76320;SDS011;65132;52.088;5.402;2024-03-25T13:37:49;4.88;;;1.60;;
76320;SDS011;65132;52.088;5.402;2024-03-25T13:40:14;6.13;;;1.73;;
76320;SDS011;65132;52.088;5.402;2024-03-25T13:42:40;5.55;;;1.45;;
76320;SDS011;65132;52.088;5.402;2024-03-25T13:45:08;4.38;;;1.23;;
76320;SDS011;65132;52.088;5.402;2024-03-25T13:47:34;4.97;;;1.20;;
76320;SDS011;65132;52.088;5.402;2024-03-25T13:50:03;5.72;;;1.40;;
76320;SDS011;65132;52.088;5.402;2024-03-25T13:52:29;4.85;;;1.40;;
76320;SDS011;65132;52.088;5.402;2024-03-25T13:54:55;7.40;;;1.65;;
76320;SDS011;65132;52.088;5.402;2024-03-25T13:57:20;5.63;;;1.20;;
76320;SDS011;65132;52.088;5.402;2024-03-25T13:59:46;5.35;;;1.42;;
76320;SDS011;65132;52.088;5.402;2024-03-25T14:02:11;3.97;;;1.35;;
76320;SDS011;65132;52.088;5.402;2024-03-25T14:04:37;3.70;;;1.10;;
76320;SDS011;65132;52.088;5.402;2024-03-25T14:07:02;3.70;;;1.50;;
76320;SDS011;65132;52.088;5.402;2024-03-25T14:09:28;6.00;;;1.20;;
76320;SDS011;65132;52.088;5.402;2024-03-25T14:11:53;3.53;;;1.00;;
76320;SDS011;65132;52.088;5.402;2024-03-25T14:14:19;2.40;;;0.80;;
76320;SDS011;65132;52.088;5.402;2024-03-25T14:16:45;3.00;;;0.88;;
76320;SDS011;65132;52.088;5.402;2024-03-25T14:19:13;4.60;;;0.85;;
76320;SDS011;65132;52.088;5.402;2024-03-25T14:21:39;3.28;;;0.88;;
76320;SDS011;65132;52.088;5.402;2024-03-25T14:24:05;4.10;;;1.75;;
76320;SDS011;65132;52.088;5.402;2024-03-25T14:26:31;4.95;;;1.88;;
76320;SDS011;65132;52.088;5.402;2024-03-25T14:28:57;4.53;;;1.70;;
76320;SDS011;65132;52.088;5.402;2024-03-25T14:31:23;3.72;;;1.58;;
76320;SDS011;65132;52.088;5.402;2024-03-25T14:33:48;5.22;;;1.80;;
76320;SDS011;65132;52.088;5.402;2024-03-25T14:36:14;5.13;;;1.70;;
76320;SDS011;65132;52.088;5.402;2024-03-25T14:38:40;4.90;;;1.20;;
76320;SDS011;65132;52.088;5.402;2024-03-25T14:41:05;6.57;;;2.15;;
76320;SDS011;65132;52.088;5.402;2024-03-25T14:43:31;5.40;;;1.60;;